Time;durP1;ratioP1;P1;durP2;ratioP2;P2;SDS_P1;SDS_P2;PMS_P1;PMS_P2;Temp;Humidity;BMP_temperature;BMP_pressure;BME280_temperature;BME280_humidity;BME280_pressure;Samples;Min_cycle;Max_cycle;Signal;HPM_P1;HPM_P2
2022/07/05 00:02:13;;;;;;;0.10;0.10;;;;;;;;;;5068754;28;20056;-85
2022/07/05 00:04:39;;;;;;;0.10;0.10;;;;;;;;;;5066591;28;20462;-85
2022/07/05 00:07:18;;;;;;;0.10;0.10;;;;;;;;;;5068199;28;20060;-84
2022/07/05 00:09:48;;;;;;;0.10;0.10;;;;;;;;;;5068572;28;20039;-85
2022/07/05 00:12:14;;;;;;;0.10;0.10;;;;;;;;;;5066953;28;20484;-84
2022/07/05 00:14:40;;;;;;;0.10;0.10;;;;;;;;;;5066252;28;20036;-83
2022/07/05 00:17:06;;;;;;;0.10;0.10;;;;;;;;;;5066963;28;20036;-83
2022/07/05 00:19:33;;;;;;;0.10;0.10;;;;;;;;;;5067931;28;20423;-83
2022/07/05 00:21:59;;;;;;;0.10;0.10;;;;;;;;;;5067094;28;20412;-82
2022/07/05 00:24:26;;;;;;;0.10;0.10;;;;;;;;;;5066094;28;20024;-81
2022/07/05 00:26:52;;;;;;;0.10;0.10;;;;;;;;;;5067748;28;20039;-83
2022/07/05 00:29:18;;;;;;;0.13;0.13;;;;;;;;;;5070193;28;20032;-85
2022/07/05 00:31:44;;;;;;;0.10;0.10;;;;;;;;;;5066129;28;20083;-84
2022/07/05 00:34:10;;;;;;;0.10;0.10;;;;;;;;;;5069184;28;20036;-84
2022/07/05 00:36:36;;;;;;;0.10;0.10;;;;;;;;;;5067635;28;20484;-84
2022/07/05 00:39:02;;;;;;;0.10;0.10;;;;;;;;;;5068492;28;20078;-85
2022/07/05 00:41:28;;;;;;;0.10;0.10;;;;;;;;;;5068204;28;20032;-85
2022/07/05 00:43:55;;;;;;;0.10;0.10;;;;;;;;;;5069250;28;20669;-84
2022/07/05 00:46:21;;;;;;;0.10;0.10;;;;;;;;;;5066935;28;20020;-84
2022/07/05 00:48:47;;;;;;;0.10;0.10;;;;;;;;;;5067129;28;20024;-85
2022/07/05 00:51:13;;;;;;;0.10;0.10;;;;;;;;;;5066865;28;20028;-85
2022/07/05 00:53:40;;;;;;;0.10;0.10;;;;;;;;;;5067546;28;20047;-84
2022/07/05 00:56:06;;;;;;;0.10;0.10;;;;;;;;;;5066216;28;20024;-84
2022/07/05 00:58:33;;;;;;;0.10;0.10;;;;;;;;;;5067398;28;20084;-85
2022/07/05 01:00:59;;;;;;;0.10;0.10;;;;;;;;;;5067511;28;20028;-84
2022/07/05 01:03:27;;;;;;;0.10;0.10;;;;;;;;;;5066523;28;20470;-82
2022/07/05 01:05:53;;;;;;;0.10;0.10;;;;;;;;;;5065436;28;20040;-84
2022/07/05 01:08:19;;;;;;;0.10;0.10;;;;;;;;;;5066808;28;20545;-83
2022/07/05 01:10:46;;;;;;;0.10;0.10;;;;;;;;;;5066611;28;20032;-84
2022/07/05 01:13:12;;;;;;;0.10;0.10;;;;;;;;;;5067666;28;20181;-83
2022/07/05 01:15:38;;;;;;;0.08;0.08;;;;;;;;;;5066318;28;20031;-85
2022/07/05 01:18:05;;;;;;;0.10;0.10;;;;;;;;;;5067792;28;20021;-84
2022/07/05 01:20:31;;;;;;;0.10;0.10;;;;;;;;;;5066568;28;20052;-85
2022/07/05 01:23:02;;;;;;;0.10;0.10;;;;;;;;;;5067828;28;20572;-85
2022/07/05 01:25:29;;;;;;;0.10;0.10;;;;;;;;;;5067498;28;20025;-84
2022/07/05 01:27:55;;;;;;;0.10;0.10;;;;;;;;;;5068765;28;20029;-84
2022/07/05 01:30:21;;;;;;;0.10;0.10;;;;;;;;;;5068879;28;20501;-82
2022/07/05 01:32:48;;;;;;;0.10;0.10;;;;;;;;;;5066595;28;20186;-82
2022/07/05 01:35:20;;;;;;;0.10;0.10;;;;;;;;;;5067203;28;20120;-81
2022/07/05 01:37:46;;;;;;;0.10;0.10;;;;;;;;;;5066256;28;20033;-82
2022/07/05 01:40:12;;;;;;;0.10;0.10;;;;;;;;;;5066268;28;20020;-83
2022/07/05 01:42:38;;;;;;;0.10;0.10;;;;;;;;;;5066461;28;20032;-84
2022/07/05 01:45:04;;;;;;;0.10;0.10;;;;;;;;;;5064518;28;20028;-83
2022/07/05 01:47:31;;;;;;;0.10;0.10;;;;;;;;;;5065930;28;20024;-83
2022/07/05 01:49:58;;;;;;;0.10;0.10;;;;;;;;;;5064502;28;20036;-84
2022/07/05 01:52:25;;;;;;;0.10;0.10;;;;;;;;;;5065080;28;20033;-83
2022/07/05 01:54:51;;;;;;;0.10;0.10;;;;;;;;;;5064674;28;20043;-83
2022/07/05 01:57:17;;;;;;;0.10;0.10;;;;;;;;;;5066502;28;20036;-83
2022/07/05 01:59:43;;;;;;;0.10;0.10;;;;;;;;;;5064666;28;20031;-83
2022/07/05 02:02:09;;;;;;;0.10;0.10;;;;;;;;;;5064980;28;20071;-82
2022/07/05 02:04:35;;;;;;;0.10;0.10;;;;;;;;;;5064680;28;20499;-83
2022/07/05 02:07:05;;;;;;;0.10;0.10;;;;;;;;;;5067346;28;20125;-83
2022/07/05 02:09:31;;;;;;;0.10;0.10;;;;;;;;;;5063934;28;20043;-83
2022/07/05 02:11:57;;;;;;;0.10;0.10;;;;;;;;;;5065189;28;20025;-83
2022/07/05 02:14:24;;;;;;;0.10;0.10;;;;;;;;;;5065561;28;20117;-84
2022/07/05 02:16:50;;;;;;;0.10;0.10;;;;;;;;;;5064257;28;20039;-83
2022/07/05 02:19:16;;;;;;;0.10;0.10;;;;;;;;;;5066090;28;20040;-85
2022/07/05 02:21:42;;;;;;;0.10;0.10;;;;;;;;;;5066066;28;20020;-82
2022/07/05 02:24:08;;;;;;;0.10;0.10;;;;;;;;;;5064355;28;20131;-84
2022/07/05 02:26:34;;;;;;;0.10;0.10;;;;;;;;;;5066080;28;20025;-85
2022/07/05 02:29:01;;;;;;;0.10;0.10;;;;;;;;;;5066738;28;20032;-83
2022/07/05 02:31:27;;;;;;;0.10;0.10;;;;;;;;;;5065861;28;20031;-84
2022/07/05 02:33:52;;;;;;;0.10;0.10;;;;;;;;;;5067332;28;20780;-84
2022/07/05 02:36:19;;;;;;;0.10;0.10;;;;;;;;;;5065746;28;20029;-83
2022/07/05 02:38:45;;;;;;;0.10;0.10;;;;;;;;;;5065235;28;20351;-81
2022/07/05 02:41:11;;;;;;;0.10;0.10;;;;;;;;;;5065129;28;20550;-82
2022/07/05 02:43:38;;;;;;;0.10;0.10;;;;;;;;;;5064572;28;20052;-84
2022/07/05 02:46:04;;;;;;;0.10;0.10;;;;;;;;;;5064910;28;20036;-83
2022/07/05 02:48:31;;;;;;;0.10;0.10;;;;;;;;;;5065501;28;20020;-84
2022/07/05 02:50:57;;;;;;;0.10;0.10;;;;;;;;;;5063554;28;20028;-85
2022/07/05 02:53:24;;;;;;;0.10;0.10;;;;;;;;;;5065179;28;20040;-84
2022/07/05 02:55:50;;;;;;;0.10;0.10;;;;;;;;;;5064113;28;20090;-83
2022/07/05 02:58:19;;;;;;;0.10;0.10;;;;;;;;;;5064645;28;20020;-82
2022/07/05 03:00:45;;;;;;;0.10;0.10;;;;;;;;;;5065370;28;20024;-82
2022/07/05 03:03:11;;;;;;;0.10;0.10;;;;;;;;;;5066099;28;20499;-84
2022/07/05 03:05:37;;;;;;;0.10;0.10;;;;;;;;;;5066004;28;20071;-83
2022/07/05 03:08:03;;;;;;;0.10;0.10;;;;;;;;;;5066520;28;20039;-84
2022/07/05 03:10:30;;;;;;;0.00;0.00;;;;;;;;;;5064250;28;20025;-82
2022/07/05 03:12:55;;;;;;;0.10;0.10;;;;;;;;;;5065213;28;20488;-85
2022/07/05 03:15:21;;;;;;;0.10;0.10;;;;;;;;;;5066015;28;20060;-82
2022/07/05 03:17:47;;;;;;;0.10;0.10;;;;;;;;;;5065365;28;20032;-81
2022/07/05 03:20:14;;;;;;;0.10;0.10;;;;;;;;;;5063903;28;20500;-82
2022/07/05 03:22:40;;;;;;;0.10;0.10;;;;;;;;;;5063319;28;20404;-83
2022/07/05 03:25:06;;;;;;;0.10;0.10;;;;;;;;;;5064867;28;20089;-83
2022/07/05 03:27:32;;;;;;;0.10;0.10;;;;;;;;;;5062929;28;20025;-83
2022/07/05 03:29:58;;;;;;;0.10;0.10;;;;;;;;;;5066081;28;20024;-83
2022/07/05 03:32:24;;;;;;;0.00;0.00;;;;;;;;;;5067613;28;20098;-82
2022/07/05 03:34:50;;;;;;;0.10;0.10;;;;;;;;;;5066853;28;20025;-84
2022/07/05 03:37:16;;;;;;;0.10;0.10;;;;;;;;;;5063047;28;20024;-83
2022/07/05 03:39:42;;;;;;;0.10;0.10;;;;;;;;;;5063023;28;20051;-81
2022/07/05 03:42:08;;;;;;;0.10;0.10;;;;;;;;;;5065342;28;20028;-81
2022/07/05 03:44:34;;;;;;;0.10;0.10;;;;;;;;;;5063023;28;20500;-83
2022/07/05 03:47:00;;;;;;;0.10;0.10;;;;;;;;;;5063943;28;20419;-83
2022/07/05 03:49:26;;;;;;;0.10;0.10;;;;;;;;;;5064155;28;20172;-82
2022/07/05 03:51:52;;;;;;;0.10;0.10;;;;;;;;;;5065312;28;21820;-82
2022/07/05 03:54:19;;;;;;;0.10;0.10;;;;;;;;;;5063881;28;20039;-84
2022/07/05 03:56:45;;;;;;;0.10;0.10;;;;;;;;;;5065336;28;20548;-85
2022/07/05 03:59:11;;;;;;;0.10;0.10;;;;;;;;;;5063760;28;20025;-84
2022/07/05 04:01:37;;;;;;;0.10;0.10;;;;;;;;;;5063902;28;20056;-85
2022/07/05 04:04:03;;;;;;;0.10;0.10;;;;;;;;;;5063531;28;20056;-84
2022/07/05 04:06:29;;;;;;;0.10;0.10;;;;;;;;;;5066674;28;20031;-82
2022/07/05 04:08:55;;;;;;;0.10;0.10;;;;;;;;;;5066776;28;20067;-83
2022/07/05 04:11:21;;;;;;;0.10;0.10;;;;;;;;;;5067362;28;20025;-83
2022/07/05 04:13:47;;;;;;;0.10;0.10;;;;;;;;;;5066842;28;20119;-83
2022/07/05 04:16:13;;;;;;;0.10;0.10;;;;;;;;;;5067543;28;20541;-82
2022/07/05 04:18:39;;;;;;;0.10;0.10;;;;;;;;;;5067036;28;20123;-83
2022/07/05 04:21:06;;;;;;;0.10;0.10;;;;;;;;;;5067131;28;20029;-84
2022/07/05 04:23:32;;;;;;;0.10;0.10;;;;;;;;;;5067835;28;20044;-82
2022/07/05 04:25:58;;;;;;;0.10;0.10;;;;;;;;;;5066814;28;20029;-85
2022/07/05 04:28:24;;;;;;;0.10;0.10;;;;;;;;;;5067728;28;20111;-84
2022/07/05 04:30:50;;;;;;;0.10;0.10;;;;;;;;;;5068573;28;20032;-84
2022/07/05 04:33:16;;;;;;;0.10;0.10;;;;;;;;;;5067937;28;20079;-84
2022/07/05 04:35:42;;;;;;;0.10;0.10;;;;;;;;;;5067585;28;20290;-84
2022/07/05 04:38:08;;;;;;;0.10;0.10;;;;;;;;;;5066542;28;20036;-84
2022/07/05 04:40:34;;;;;;;0.10;0.10;;;;;;;;;;5067120;28;20538;-83
2022/07/05 04:43:00;;;;;;;0.10;0.10;;;;;;;;;;5067347;28;20893;-82
2022/07/05 04:45:26;;;;;;;0.10;0.10;;;;;;;;;;5066240;28;20062;-84
2022/07/05 04:47:52;;;;;;;0.10;0.10;;;;;;;;;;5066383;28;20411;-84
2022/07/05 04:50:18;;;;;;;0.10;0.10;;;;;;;;;;5068167;28;20515;-83
2022/07/05 04:52:44;;;;;;;0.10;0.10;;;;;;;;;;5067118;28;20029;-84
2022/07/05 04:55:10;;;;;;;0.10;0.10;;;;;;;;;;5066064;28;20060;-83
2022/07/05 04:57:37;;;;;;;0.10;0.10;;;;;;;;;;5067746;28;20021;-84
2022/07/05 05:00:03;;;;;;;0.10;0.10;;;;;;;;;;5068155;28;20020;-82
2022/07/05 05:02:29;;;;;;;0.20;0.20;;;;;;;;;;5068041;28;20081;-86
2022/07/05 05:04:55;;;;;;;0.20;0.20;;;;;;;;;;5061453;28;20028;-84
2022/07/05 05:07:21;;;;;;;0.10;0.10;;;;;;;;;;5067184;28;20469;-83
2022/07/05 05:09:47;;;;;;;0.10;0.10;;;;;;;;;;5067355;28;20032;-83
2022/07/05 05:12:13;;;;;;;0.10;0.10;;;;;;;;;;5064839;28;20037;-83
2022/07/05 05:14:39;;;;;;;0.10;0.10;;;;;;;;;;5052682;28;20650;-83
2022/07/05 05:17:05;;;;;;;0.10;0.10;;;;;;;;;;5054048;28;20070;-82
2022/07/05 05:19:31;;;;;;;0.03;0.03;;;;;;;;;;5066143;28;20111;-81
2022/07/05 05:21:57;;;;;;;0.10;0.10;;;;;;;;;;5067055;28;20039;-86
2022/07/05 05:24:23;;;;;;;0.20;0.20;;;;;;;;;;5066301;28;20060;-84
2022/07/05 05:26:50;;;;;;;0.10;0.10;;;;;;;;;;5068970;28;20107;-86
2022/07/05 05:29:16;;;;;;;0.10;0.10;;;;;;;;;;5068426;28;20111;-81
2022/07/05 05:31:42;;;;;;;0.10;0.10;;;;;;;;;;5065782;28;20029;-81
2022/07/05 05:34:08;;;;;;;0.10;0.10;;;;;;;;;;5066117;28;20035;-83
2022/07/05 05:36:34;;;;;;;0.10;0.10;;;;;;;;;;5052585;28;20035;-82
2022/07/05 05:39:00;;;;;;;0.10;0.10;;;;;;;;;;5057277;28;20028;-80
2022/07/05 05:41:26;;;;;;;0.10;0.10;;;;;;;;;;5064305;28;20024;-79
2022/07/05 05:43:52;;;;;;;0.10;0.10;;;;;;;;;;5066744;28;20104;-79
2022/07/05 05:46:18;;;;;;;0.10;0.10;;;;;;;;;;5067010;28;20432;-80
2022/07/05 05:48:44;;;;;;;0.10;0.10;;;;;;;;;;5066185;28;20492;-80
2022/07/05 05:51:10;;;;;;;0.10;0.10;;;;;;;;;;5066021;28;20038;-80
2022/07/05 05:53:36;;;;;;;0.10;0.10;;;;;;;;;;5061633;28;20067;-82
2022/07/05 05:56:03;;;;;;;0.10;0.10;;;;;;;;;;5071606;28;20028;-82
2022/07/05 05:58:28;;;;;;;0.15;0.15;;;;;;;;;;5071491;28;20059;-92
2022/07/05 06:00:54;;;;;;;0.10;0.10;;;;;;;;;;5069567;28;20056;-87
2022/07/05 06:03:21;;;;;;;0.10;0.10;;;;;;;;;;5072987;28;20048;-83
2022/07/05 06:05:47;;;;;;;0.10;0.10;;;;;;;;;;5072273;28;20028;-87
2022/07/05 06:08:16;;;;;;;0.10;0.10;;;;;;;;;;5071851;28;20025;-83
2022/07/05 06:10:42;;;;;;;0.00;0.00;;;;;;;;;;5052815;28;20041;-82
2022/07/05 06:13:10;;;;;;;0.10;0.10;;;;;;;;;;5049490;28;20400;-83
2022/07/05 06:15:36;;;;;;;0.10;0.10;;;;;;;;;;5050049;28;20029;-83
2022/07/05 06:18:02;;;;;;;0.10;0.10;;;;;;;;;;5050319;28;20075;-83
2022/07/05 06:20:29;;;;;;;0.10;0.10;;;;;;;;;;5050303;28;20017;-83
2022/07/05 06:22:56;;;;;;;0.10;0.10;;;;;;;;;;5050625;28;20036;-83
2022/07/05 06:25:22;;;;;;;0.10;0.10;;;;;;;;;;5050293;28;20025;-81
2022/07/05 06:27:53;;;;;;;0.10;0.10;;;;;;;;;;5050769;28;20123;-82
2022/07/05 06:30:19;;;;;;;0.10;0.10;;;;;;;;;;5051316;28;20021;-83
2022/07/05 06:32:46;;;;;;;0.10;0.10;;;;;;;;;;5051355;28;20579;-82
2022/07/05 06:35:13;;;;;;;0.10;0.10;;;;;;;;;;5051729;28;20396;-82
2022/07/05 06:37:42;;;;;;;0.10;0.10;;;;;;;;;;5051356;28;20029;-82
2022/07/05 06:40:08;;;;;;;0.10;0.10;;;;;;;;;;5051583;28;20013;-82
2022/07/05 06:42:34;;;;;;;0.10;0.10;;;;;;;;;;5049915;28;20188;-83
2022/07/05 06:45:00;;;;;;;0.10;0.10;;;;;;;;;;5050783;28;20439;-88
2022/07/05 06:47:26;;;;;;;0.10;0.10;;;;;;;;;;5050275;28;20079;-90
2022/07/05 06:49:52;;;;;;;0.10;0.10;;;;;;;;;;5051887;28;20039;-88
2022/07/05 06:52:18;;;;;;;0.10;0.10;;;;;;;;;;5051367;28;20033;-88
2022/07/05 06:54:44;;;;;;;0.10;0.10;;;;;;;;;;5051227;28;20025;-83
2022/07/05 06:57:10;;;;;;;0.10;0.10;;;;;;;;;;5050012;28;20469;-82
2022/07/05 06:59:36;;;;;;;0.10;0.10;;;;;;;;;;5049763;28;20028;-82
2022/07/05 07:02:03;;;;;;;0.10;0.10;;;;;;;;;;5050055;28;20035;-83
2022/07/05 07:04:29;;;;;;;0.10;0.10;;;;;;;;;;5051051;28;20021;-82
2022/07/05 07:06:55;;;;;;;0.10;0.10;;;;;;;;;;5049945;28;20033;-82
2022/07/05 07:09:21;;;;;;;0.10;0.10;;;;;;;;;;5051379;28;20029;-82
2022/07/05 07:11:48;;;;;;;0.10;0.10;;;;;;;;;;5050085;28;20028;-82
2022/07/05 07:14:14;;;;;;;0.10;0.10;;;;;;;;;;5051092;28;20036;-82
2022/07/05 07:16:40;;;;;;;0.10;0.10;;;;;;;;;;5049649;28;20389;-82
2022/07/05 07:19:06;;;;;;;0.10;0.10;;;;;;;;;;5051022;28;20468;-82
2022/07/05 07:21:32;;;;;;;0.10;0.10;;;;;;;;;;5050778;28;20025;-83
2022/07/05 07:23:58;;;;;;;0.10;0.10;;;;;;;;;;5051241;28;20078;-82
2022/07/05 07:26:24;;;;;;;0.10;0.10;;;;;;;;;;5050857;28;20025;-81
2022/07/05 07:28:50;;;;;;;0.08;0.08;;;;;;;;;;5051377;28;20033;-82
2022/07/05 07:31:16;;;;;;;0.10;0.10;;;;;;;;;;5051166;28;20494;-80
2022/07/05 07:33:42;;;;;;;0.10;0.10;;;;;;;;;;5049386;28;20131;-82
2022/07/05 07:36:08;;;;;;;0.10;0.10;;;;;;;;;;5049676;28;20454;-82
2022/07/05 07:38:34;;;;;;;0.10;0.10;;;;;;;;;;5050558;28;20021;-82
2022/07/05 07:41:00;;;;;;;0.10;0.10;;;;;;;;;;5052238;28;20029;-82
2022/07/05 07:43:27;;;;;;;0.10;0.10;;;;;;;;;;5053309;28;20112;-81
2022/07/05 07:45:53;;;;;;;0.10;0.10;;;;;;;;;;5053521;28;20040;-82
2022/07/05 07:48:20;;;;;;;0.10;0.10;;;;;;;;;;5053747;28;20023;-83
2022/07/05 07:50:46;;;;;;;0.10;0.10;;;;;;;;;;5054463;28;20140;-82
2022/07/05 07:53:12;;;;;;;0.10;0.10;;;;;;;;;;5053345;28;20626;-82
2022/07/05 07:55:38;;;;;;;0.10;0.10;;;;;;;;;;5054440;28;20025;-82
2022/07/05 07:58:05;;;;;;;0.10;0.10;;;;;;;;;;5054481;28;20021;-82
2022/07/05 08:00:31;;;;;;;0.10;0.10;;;;;;;;;;5053010;28;20029;-82
2022/07/05 08:02:58;;;;;;;0.10;0.10;;;;;;;;;;5054463;28;20025;-82
2022/07/05 08:05:24;;;;;;;0.10;0.10;;;;;;;;;;5052952;28;20473;-81
2022/07/05 08:07:51;;;;;;;0.10;0.10;;;;;;;;;;5054723;28;20039;-82
2022/07/05 08:10:17;;;;;;;0.10;0.10;;;;;;;;;;5054611;28;20075;-82
2022/07/05 08:12:43;;;;;;;0.10;0.10;;;;;;;;;;5052891;28;20033;-82
2022/07/05 08:15:09;;;;;;;0.10;0.10;;;;;;;;;;5052979;28;20496;-82
2022/07/05 08:17:35;;;;;;;0.10;0.10;;;;;;;;;;5054025;28;20082;-81
2022/07/05 08:22:46;;;;;;;0.10;0.10;;;;;;;;;;5053812;28;20421;-82
2022/07/05 08:25:14;;;;;;;0.10;0.10;;;;;;;;;;5052784;28;20047;-82
2022/07/05 08:27:40;;;;;;;0.10;0.10;;;;;;;;;;5053754;28;20103;-82
2022/07/05 08:30:06;;;;;;;0.10;0.10;;;;;;;;;;5054250;28;20385;-83
2022/07/05 08:32:32;;;;;;;0.10;0.10;;;;;;;;;;5053680;28;20416;-82
2022/07/05 08:34:58;;;;;;;0.10;0.10;;;;;;;;;;5052603;28;20472;-82
2022/07/05 08:37:24;;;;;;;0.10;0.10;;;;;;;;;;5053739;28;20078;-81
2022/07/05 08:39:50;;;;;;;0.10;0.10;;;;;;;;;;5052779;28;20036;-82
2022/07/05 08:42:17;;;;;;;0.10;0.10;;;;;;;;;;5053221;28;20509;-90
2022/07/05 08:44:44;;;;;;;0.10;0.10;;;;;;;;;;5054443;28;20074;-90
2022/07/05 08:47:11;;;;;;;0.10;0.10;;;;;;;;;;5054044;28;20036;-84
2022/07/05 08:49:40;;;;;;;0.10;0.10;;;;;;;;;;5052159;28;20025;-84
2022/07/05 08:52:07;;;;;;;0.10;0.10;;;;;;;;;;5051653;28;20062;-87
2022/07/05 08:54:34;;;;;;;0.08;0.08;;;;;;;;;;5053649;28;20036;-84
2022/07/05 08:57:00;;;;;;;0.10;0.10;;;;;;;;;;5052546;28;20021;-86
2022/07/05 08:59:26;;;;;;;0.10;0.10;;;;;;;;;;5053328;28;20465;-85
2022/07/05 09:01:53;;;;;;;0.10;0.10;;;;;;;;;;5052372;28;20036;-84
2022/07/05 09:04:19;;;;;;;0.10;0.10;;;;;;;;;;5054147;28;20091;-85
2022/07/05 09:06:47;;;;;;;0.10;0.10;;;;;;;;;;5052395;28;20116;-89
2022/07/05 09:09:13;;;;;;;0.10;0.10;;;;;;;;;;5052975;28;20021;-88
2022/07/05 09:11:41;;;;;;;0.10;0.10;;;;;;;;;;5053917;28;20029;-82
2022/07/05 09:14:18;;;;;;;0.10;0.10;;;;;;;;;;5051887;28;20079;-82
2022/07/05 09:16:44;;;;;;;0.10;0.10;;;;;;;;;;5051472;28;20142;-89
2022/07/05 09:19:10;;;;;;;0.10;0.10;;;;;;;;;;5053496;28;20028;-88
2022/07/05 09:21:37;;;;;;;0.10;0.10;;;;;;;;;;5053287;28;20416;-84
2022/07/05 09:24:03;;;;;;;0.10;0.10;;;;;;;;;;5052107;28;20033;-85
2022/07/05 09:26:32;;;;;;;0.73;0.73;;;;;;;;;;5051883;28;20082;-83
2022/07/05 09:28:58;;;;;;;0.10;0.10;;;;;;;;;;5053131;28;20029;-84
2022/07/05 09:31:28;;;;;;;0.10;0.10;;;;;;;;;;5053039;28;20092;-84
2022/07/05 09:33:54;;;;;;;0.10;0.10;;;;;;;;;;5052226;28;20033;-89
2022/07/05 09:36:20;;;;;;;0.10;0.10;;;;;;;;;;5052131;28;20031;-85
2022/07/05 09:38:52;;;;;;;0.10;0.10;;;;;;;;;;5051346;28;20033;-83
2022/07/05 09:41:18;;;;;;;0.10;0.10;;;;;;;;;;5051649;28;20048;-83
2022/07/05 09:43:44;;;;;;;0.10;0.10;;;;;;;;;;5051358;28;20017;-84
2022/07/05 09:46:12;;;;;;;0.10;0.10;;;;;;;;;;5052715;28;20108;-82
2022/07/05 09:48:51;;;;;;;0.00;0.00;;;;;;;;;;5052394;28;20082;-83
2022/07/05 09:51:17;;;;;;;0.10;0.10;;;;;;;;;;5051395;28;20037;-82
2022/07/05 09:53:46;;;;;;;0.10;0.10;;;;;;;;;;5052049;28;20033;-83
2022/07/05 09:56:13;;;;;;;0.10;0.10;;;;;;;;;;5053253;28;20036;-91
2022/07/05 09:58:40;;;;;;;0.10;0.10;;;;;;;;;;5051884;28;20029;-91
2022/07/05 10:01:25;;;;;;;0.10;0.10;;;;;;;;;;5052817;28;20078;-83
2022/07/05 10:03:53;;;;;;;0.10;0.10;;;;;;;;;;5051204;28;20032;-82
2022/07/05 10:06:19;;;;;;;0.10;0.10;;;;;;;;;;5052542;28;20025;-82
2022/07/05 10:08:45;;;;;;;0.10;0.10;;;;;;;;;;5050598;28;20025;-82
2022/07/05 10:11:11;;;;;;;0.10;0.10;;;;;;;;;;5050816;28;20485;-83
2022/07/05 10:13:38;;;;;;;0.10;0.10;;;;;;;;;;5050477;28;20606;-82
2022/07/05 10:16:04;;;;;;;0.10;0.10;;;;;;;;;;5052019;28;20032;-82
2022/07/05 10:18:31;;;;;;;0.10;0.10;;;;;;;;;;5051677;28;20040;-82
2022/07/05 10:21:00;;;;;;;0.10;0.10;;;;;;;;;;5051812;28;20056;-83
2022/07/05 10:23:26;;;;;;;0.10;0.10;;;;;;;;;;5051714;28;20025;-82
2022/07/05 10:25:52;;;;;;;0.10;0.10;;;;;;;;;;5051956;28;20025;-82
2022/07/05 10:28:19;;;;;;;0.10;0.10;;;;;;;;;;5050813;28;20373;-82
2022/07/05 10:30:46;;;;;;;0.10;0.10;;;;;;;;;;5050328;28;20396;-82
2022/07/05 10:33:14;;;;;;;0.10;0.10;;;;;;;;;;5050324;28;20037;-82
2022/07/05 10:35:43;;;;;;;0.10;0.10;;;;;;;;;;5050199;28;20040;-82
2022/07/05 10:38:09;;;;;;;0.10;0.10;;;;;;;;;;5050426;28;20025;-82
2022/07/05 10:40:36;;;;;;;0.10;0.10;;;;;;;;;;5050011;28;20029;-83
2022/07/05 10:43:02;;;;;;;0.10;0.10;;;;;;;;;;5051543;28;20028;-82
2022/07/05 10:45:36;;;;;;;0.10;0.10;;;;;;;;;;5051279;28;20032;-82
2022/07/05 10:48:11;;;;;;;0.10;0.10;;;;;;;;;;5051395;28;20108;-82
2022/07/05 10:50:55;;;;;;;0.17;0.17;;;;;;;;;;5049858;28;20037;-82
2022/07/05 10:53:23;;;;;;;0.10;0.10;;;;;;;;;;5051710;28;20086;-82
2022/07/05 10:55:49;;;;;;;0.10;0.10;;;;;;;;;;5051571;28;20040;-82
2022/07/05 10:58:14;;;;;;;0.10;0.10;;;;;;;;;;5051387;28;20033;-82
2022/07/05 11:00:40;;;;;;;0.10;0.10;;;;;;;;;;5049841;28;20029;-82
2022/07/05 11:03:07;;;;;;;0.10;0.10;;;;;;;;;;5049981;28;20484;-82
2022/07/05 11:05:34;;;;;;;0.10;0.10;;;;;;;;;;5049825;28;20485;-81
2022/07/05 11:08:01;;;;;;;0.10;0.10;;;;;;;;;;5049923;28;20043;-82
2022/07/05 11:10:27;;;;;;;0.10;0.10;;;;;;;;;;5051005;28;20028;-82
2022/07/05 11:12:53;;;;;;;0.10;0.10;;;;;;;;;;5049755;28;20044;-83
2022/07/05 11:15:19;;;;;;;0.10;0.10;;;;;;;;;;5050894;28;20017;-82
2022/07/05 11:17:45;;;;;;;0.10;0.10;;;;;;;;;;5049685;28;20373;-82
2022/07/05 11:20:13;;;;;;;0.10;0.10;;;;;;;;;;5049977;28;20079;-82
2022/07/05 11:22:41;;;;;;;0.10;0.10;;;;;;;;;;5050928;28;20384;-83
2022/07/05 11:25:10;;;;;;;0.10;0.10;;;;;;;;;;5051018;28;20029;-83
2022/07/05 11:27:36;;;;;;;0.10;0.10;;;;;;;;;;5050869;28;20427;-82
2022/07/05 11:30:03;;;;;;;0.10;0.10;;;;;;;;;;5051056;28;20032;-84
2022/07/05 11:32:29;;;;;;;0.10;0.10;;;;;;;;;;5049454;28;20116;-83
2022/07/05 11:34:57;;;;;;;0.10;0.10;;;;;;;;;;5049905;28;20052;-83
2022/07/05 11:37:24;;;;;;;0.10;0.10;;;;;;;;;;5049478;28;20021;-83
2022/07/05 11:40:11;;;;;;;0.10;0.10;;;;;;;;;;5051225;28;20497;-83
2022/07/05 11:42:39;;;;;;;0.15;0.15;;;;;;;;;;5049409;28;20033;-83
2022/07/05 11:45:08;;;;;;;0.15;0.15;;;;;;;;;;5050869;28;20075;-83
2022/07/05 11:47:35;;;;;;;0.10;0.10;;;;;;;;;;5050602;28;20025;-83
2022/07/05 11:50:01;;;;;;;0.10;0.10;;;;;;;;;;5050701;28;20484;-82
2022/07/05 11:52:27;;;;;;;0.10;0.10;;;;;;;;;;5050600;28;20078;-83
2022/07/05 11:54:53;;;;;;;0.10;0.10;;;;;;;;;;5049596;28;20029;-83
2022/07/05 11:57:20;;;;;;;0.10;0.10;;;;;;;;;;5049865;28;20028;-82
2022/07/05 11:59:47;;;;;;;0.10;0.10;;;;;;;;;;5049341;28;20083;-84
2022/07/05 12:02:13;;;;;;;0.10;0.10;;;;;;;;;;5049502;28;20033;-82
2022/07/05 12:04:39;;;;;;;0.10;0.10;;;;;;;;;;5050584;28;20032;-84
2022/07/05 12:07:05;;;;;;;0.10;0.10;;;;;;;;;;5050836;28;20032;-85
2022/07/05 12:15:08;;;;;;;0.10;0.10;;;;;;;;;;5050810;28;20048;-82
2022/07/05 12:17:34;;;;;;;0.10;0.10;;;;;;;;;;5048912;28;20511;-82
2022/07/05 12:20:00;;;;;;;0.10;0.10;;;;;;;;;;5049186;28;20037;-82
2022/07/05 12:22:34;;;;;;;0.10;0.10;;;;;;;;;;5048983;28;20040;-82
2022/07/05 12:25:01;;;;;;;0.10;0.10;;;;;;;;;;5049217;28;20071;-82
2022/07/05 12:27:31;;;;;;;0.10;0.10;;;;;;;;;;5049412;28;20021;-83
2022/07/05 12:29:57;;;;;;;0.10;0.10;;;;;;;;;;5052755;28;20025;-83
2022/07/05 12:32:23;;;;;;;0.10;0.10;;;;;;;;;;5053879;28;20033;-82
2022/07/05 12:34:49;;;;;;;0.10;0.10;;;;;;;;;;5054253;28;20496;-82
2022/07/05 12:37:22;;;;;;;0.10;0.10;;;;;;;;;;5053944;28;20071;-82
2022/07/05 12:39:48;;;;;;;0.10;0.10;;;;;;;;;;5054163;28;20025;-83
2022/07/05 12:42:34;;;;;;;0.10;0.10;;;;;;;;;;5052536;28;20029;-82
2022/07/05 12:45:07;;;;;;;0.10;0.10;;;;;;;;;;5052522;28;20017;-83
2022/07/05 12:47:37;;;;;;;0.10;0.10;;;;;;;;;;5052264;28;20036;-82
2022/07/05 12:50:03;;;;;;;0.10;0.10;;;;;;;;;;5053498;28;20079;-83
2022/07/05 12:52:29;;;;;;;0.10;0.10;;;;;;;;;;5053302;28;20436;-84
2022/07/05 12:58:04;;;;;;;0.10;0.10;;;;;;;;;;5053411;28;20570;-82
2022/07/05 13:00:30;;;;;;;0.10;0.10;;;;;;;;;;5051893;28;20082;-83
2022/07/05 13:02:56;;;;;;;0.10;0.10;;;;;;;;;;5052068;28;20025;-83
2022/07/05 13:05:24;;;;;;;0.10;0.10;;;;;;;;;;5053188;28;20473;-83
2022/07/05 13:07:51;;;;;;;0.10;0.10;;;;;;;;;;5053592;28;20021;-83
2022/07/05 13:10:18;;;;;;;0.10;0.10;;;;;;;;;;5052323;28;20021;-84
2022/07/05 13:12:44;;;;;;;0.10;0.10;;;;;;;;;;5051681;28;20082;-83
2022/07/05 13:15:11;;;;;;;0.10;0.10;;;;;;;;;;5053188;28;20029;-82
2022/07/05 13:17:37;;;;;;;0.10;0.10;;;;;;;;;;5052937;28;20021;-83
2022/07/05 13:20:03;;;;;;;0.10;0.10;;;;;;;;;;5053162;28;20469;-83
2022/07/05 13:22:29;;;;;;;0.20;0.20;;;;;;;;;;5052861;28;20104;-82
2022/07/05 13:24:55;;;;;;;0.10;0.10;;;;;;;;;;5051825;28;20025;-82
2022/07/05 13:27:21;;;;;;;0.10;0.10;;;;;;;;;;5052067;28;20439;-85
2022/07/05 13:29:50;;;;;;;0.10;0.10;;;;;;;;;;5052095;28;20481;-83
2022/07/05 13:32:17;;;;;;;0.10;0.10;;;;;;;;;;5053215;28;20032;-83
2022/07/05 13:34:45;;;;;;;0.20;0.20;;;;;;;;;;5051708;28;20411;-88
2022/07/05 13:37:11;;;;;;;0.10;0.10;;;;;;;;;;5053237;28;20070;-85
2022/07/05 13:39:38;;;;;;;0.10;0.10;;;;;;;;;;5051369;28;20025;-82
2022/07/05 13:42:05;;;;;;;0.10;0.10;;;;;;;;;;5051653;28;20060;-82
2022/07/05 13:44:31;;;;;;;0.10;0.10;;;;;;;;;;5051198;28;20033;-82
2022/07/05 13:46:57;;;;;;;0.10;0.10;;;;;;;;;;5051369;28;20025;-83
2022/07/05 13:49:23;;;;;;;0.10;0.10;;;;;;;;;;5052257;28;20108;-83
2022/07/05 13:51:49;;;;;;;0.10;0.10;;;;;;;;;;5052944;28;20021;-82
2022/07/05 13:54:16;;;;;;;0.10;0.10;;;;;;;;;;5052600;28;20045;-83
2022/07/05 13:56:42;;;;;;;0.08;0.08;;;;;;;;;;5052362;28;20366;-82
2022/07/05 13:59:08;;;;;;;0.10;0.10;;;;;;;;;;5051462;28;20024;-82
2022/07/05 14:01:34;;;;;;;0.10;0.10;;;;;;;;;;5051048;28;20025;-83
2022/07/05 14:04:04;;;;;;;0.20;0.20;;;;;;;;;;5051032;28;20032;-84
2022/07/05 14:06:31;;;;;;;0.10;0.10;;;;;;;;;;5050883;28;20094;-84
2022/07/05 14:08:57;;;;;;;0.10;0.10;;;;;;;;;;5051296;28;20024;-84
2022/07/05 14:11:26;;;;;;;0.10;0.10;;;;;;;;;;5052231;28;20393;-83
2022/07/05 14:13:52;;;;;;;0.10;0.10;;;;;;;;;;5051156;28;20041;-83
2022/07/05 14:16:18;;;;;;;0.10;0.10;;;;;;;;;;5051425;28;20492;-84
2022/07/05 14:18:44;;;;;;;0.10;0.10;;;;;;;;;;5052086;28;20029;-85
2022/07/05 14:21:14;;;;;;;0.10;0.10;;;;;;;;;;5052338;28;20029;-83
2022/07/05 14:23:40;;;;;;;0.10;0.10;;;;;;;;;;5050641;28;20052;-83
2022/07/05 14:26:06;;;;;;;0.10;0.10;;;;;;;;;;5051342;28;20078;-86
2022/07/05 14:28:32;;;;;;;0.10;0.10;;;;;;;;;;5050814;28;20025;-83
2022/07/05 14:30:58;;;;;;;0.10;0.10;;;;;;;;;;5050799;28;20025;-84
2022/07/05 14:33:24;;;;;;;0.10;0.10;;;;;;;;;;5050454;28;20127;-84
2022/07/05 14:35:50;;;;;;;0.10;0.10;;;;;;;;;;5051291;28;20025;-85
2022/07/05 14:38:16;;;;;;;0.10;0.10;;;;;;;;;;5052392;28;20021;-88
2022/07/05 14:40:42;;;;;;;0.10;0.10;;;;;;;;;;5050827;28;20097;-88
2022/07/05 14:43:08;;;;;;;0.10;0.10;;;;;;;;;;5052229;28;20100;-86
2022/07/05 14:45:34;;;;;;;0.10;0.10;;;;;;;;;;5050714;28;20108;-89
2022/07/05 14:48:01;;;;;;;0.10;0.10;;;;;;;;;;5051151;28;20025;-88
2022/07/05 14:50:26;;;;;;;0.10;0.10;;;;;;;;;;5049823;28;20119;-83
2022/07/05 14:52:53;;;;;;;0.10;0.10;;;;;;;;;;5050449;28;20178;-83